Time;durP1;ratioP1;P1;durP2;ratioP2;P2;SDS_P1;SDS_P2;PMS_P1;PMS_P2;Temp;Humidity;BMP_temperature;BMP_pressure;BME280_temperature;BME280_humidity;BME280_pressure;Samples;Min_cycle;Max_cycle;Signal;HPM_P1;HPM_P2
2022/04/16 00:00:27;;;;;;;17.42;12.02;;;9.30;99.90;;;;;;15623020;22;20031;-84
2022/04/16 00:06:29;;;;;;;17.10;11.55;;;9.30;99.90;;;;;;15628149;22;20065;-85
2022/04/16 00:12:31;;;;;;;17.08;11.93;;;9.20;99.90;;;;;;15625505;22;20096;-85
2022/04/16 00:18:34;;;;;;;18.17;12.35;;;9.10;99.90;;;;;;15627559;22;20062;-85
2022/04/16 00:24:36;;;;;;;17.25;11.68;;;9.20;99.90;;;;;;15598887;22;20104;-85
2022/04/16 00:30:39;;;;;;;16.27;10.43;;;9.10;99.90;;;;;;15602475;22;20133;-84
2022/04/16 00:36:42;;;;;;;14.93;10.50;;;9.10;99.90;;;;;;15628008;22;20035;-85
2022/04/16 00:42:44;;;;;;;18.73;12.70;;;9.10;99.90;;;;;;15604089;22;20023;-84
2022/04/16 00:48:46;;;;;;;18.67;13.30;;;9.00;99.90;;;;;;15634215;22;20108;-84
2022/04/16 00:54:50;;;;;;;21.33;14.57;;;8.90;99.90;;;;;;15634095;22;20110;-85
2022/04/16 01:00:52;;;;;;;25.35;15.90;;;9.00;99.90;;;;;;15632512;22;20582;-85
2022/04/16 01:06:55;;;;;;;22.45;14.88;;;8.80;99.90;;;;;;15604779;22;20150;-83
2022/04/16 01:13:00;;;;;;;26.08;16.40;;;8.80;99.90;;;;;;15632112;22;20797;-85
2022/04/16 01:19:03;;;;;;;26.30;16.60;;;8.70;99.90;;;;;;15633432;22;20042;-85
2022/04/16 01:25:05;;;;;;;28.10;16.70;;;8.80;99.90;;;;;;15606890;22;20149;-84
2022/04/16 01:31:07;;;;;;;24.60;15.70;;;8.70;99.90;;;;;;15608491;22;20062;-85
2022/04/16 01:37:09;;;;;;;27.02;17.52;;;8.70;99.90;;;;;;15637046;22;20027;-84
2022/04/16 01:43:11;;;;;;;26.83;16.77;;;8.70;99.90;;;;;;15611403;22;20106;-84
2022/04/16 01:49:13;;;;;;;31.08;16.90;;;8.70;99.90;;;;;;15634133;22;20059;-85
2022/04/16 01:55:16;;;;;;;30.88;17.77;;;8.60;99.90;;;;;;15645112;22;20111;-84
2022/04/16 02:01:19;;;;;;;27.70;17.30;;;8.50;99.90;;;;;;15641739;22;20088;-84
2022/04/16 02:07:21;;;;;;;29.95;16.35;;;8.40;99.90;;;;;;15614359;22;20027;-85
2022/04/16 02:13:23;;;;;;;33.58;16.10;;;8.40;99.90;;;;;;15605366;22;20153;-84
2022/04/16 02:19:26;;;;;;;24.52;14.25;;;8.30;99.90;;;;;;15630242;22;20387;-85
2022/04/16 02:25:28;;;;;;;29.70;15.18;;;8.10;99.90;;;;;;15609458;22;20027;-85
2022/04/16 02:31:30;;;;;;;34.75;18.20;;;8.10;99.90;;;;;;15602318;22;20115;-85
2022/04/16 02:37:32;;;;;;;30.48;16.38;;;8.10;99.90;;;;;;15604443;22;20047;-84
2022/04/16 02:43:34;;;;;;;27.55;15.82;;;8.10;99.90;;;;;;15603533;22;20034;-84
2022/04/16 02:49:40;;;;;;;30.42;17.17;;;8.00;99.90;;;;;;15601834;22;20027;-86
2022/04/16 02:55:46;;;;;;;33.60;17.20;;;8.00;99.90;;;;;;15602292;22;20380;-84
2022/04/16 03:01:48;;;;;;;29.50;15.82;;;8.10;99.90;;;;;;15631719;22;20027;-85
2022/04/16 03:07:50;;;;;;;25.73;14.90;;;7.90;99.90;;;;;;15604259;22;20701;-84
2022/04/16 03:13:52;;;;;;;22.88;13.80;;;7.90;99.90;;;;;;15605171;22;20080;-85
2022/04/16 03:19:55;;;;;;;19.95;11.43;;;7.80;99.90;;;;;;15601963;22;20152;-84
2022/04/16 03:26:00;;;;;;;18.83;10.82;;;7.50;99.90;;;;;;15637427;22;20027;-85
2022/04/16 03:32:02;;;;;;;;;;;7.30;99.90;;;;;;15674559;22;20033;-85
2022/04/16 03:38:04;;;;;;;19.85;10.40;;;7.20;99.90;;;;;;15636019;22;19902;-84
2022/04/16 03:44:07;;;;;;;15.70;9.82;;;7.10;99.90;;;;;;15641642;22;20023;-85
2022/04/16 03:50:10;;;;;;;12.43;7.82;;;7.00;99.90;;;;;;15647948;22;20081;-84
2022/04/16 04:02:33;;;;;;;12.48;6.53;;;6.70;99.90;;;;;;15628867;22;20124;-85
2022/04/16 04:08:35;;;;;;;12.52;6.28;;;6.60;99.90;;;;;;15635883;22;20057;-85
2022/04/16 04:14:39;;;;;;;11.43;6.18;;;6.50;99.90;;;;;;15606888;22;20464;-84
2022/04/16 04:20:41;;;;;;;9.18;6.05;;;6.60;99.90;;;;;;15634098;22;20072;-84
2022/04/16 04:26:44;;;;;;;11.02;5.63;;;6.60;99.90;;;;;;15609698;22;20090;-84
2022/04/16 04:32:45;;;;;;;12.13;5.90;;;6.40;99.90;;;;;;15607853;22;20565;-85
2022/04/16 04:38:47;;;;;;;10.43;6.47;;;6.50;99.90;;;;;;15613857;22;20027;-84
2022/04/16 04:44:49;;;;;;;10.60;6.20;;;6.40;99.90;;;;;;15612698;22;20160;-85
2022/04/16 04:50:51;;;;;;;12.05;6.55;;;6.40;99.90;;;;;;15634319;22;20023;-84
2022/04/16 04:56:53;;;;;;;8.27;4.75;;;6.40;99.90;;;;;;15609236;22;20525;-85
2022/04/16 05:02:55;;;;;;;5.97;3.80;;;6.60;99.90;;;;;;15606955;22;20069;-84
2022/04/16 05:08:57;;;;;;;8.32;3.70;;;6.40;99.90;;;;;;15632849;22;20026;-84
2022/04/16 05:14:58;;;;;;;6.50;3.42;;;6.40;99.90;;;;;;15607796;22;20050;-85
2022/04/16 05:21:00;;;;;;;6.28;3.17;;;6.40;99.90;;;;;;15630789;22;20153;-83
2022/04/16 05:27:02;;;;;;;9.68;3.50;;;6.20;99.90;;;;;;15604626;22;20047;-84
2022/04/16 05:33:16;;;;;;;9.70;4.13;;;6.40;99.90;;;;;;15603846;22;20050;-84
2022/04/16 05:39:18;;;;;;;5.22;3.50;;;6.40;99.90;;;;;;15607972;22;20104;-84
2022/04/16 05:45:20;;;;;;;5.50;3.10;;;6.60;99.90;;;;;;15631750;22;20106;-84
2022/04/16 05:51:23;;;;;;;5.53;3.28;;;6.90;99.90;;;;;;15602481;22;20163;-84
2022/04/16 05:57:27;;;;;;;4.43;2.77;;;6.80;99.90;;;;;;15606034;22;20116;-84
2022/04/16 06:03:30;;;;;;;5.70;2.33;;;6.70;99.90;;;;;;15599327;22;20484;-84
2022/04/16 06:09:32;;;;;;;5.82;2.53;;;6.50;99.90;;;;;;15603468;22;20019;-84
2022/04/16 06:15:41;;;;;;;5.28;2.45;;;6.70;99.90;;;;;;15631691;22;20518;-84
2022/04/16 06:21:43;;;;;;;5.07;2.20;;;6.50;99.90;;;;;;15604488;22;20031;-83
2022/04/16 06:27:44;;;;;;;3.30;2.15;;;6.80;99.90;;;;;;15602946;22;20068;-84
2022/04/16 06:33:46;;;;;;;3.90;2.15;;;6.90;99.90;;;;;;15628671;22;20069;-84
2022/04/16 06:39:48;;;;;;;4.80;2.20;;;6.90;99.90;;;;;;15623000;22;20058;-84
2022/04/16 06:45:50;;;;;;;3.67;2.00;;;6.80;99.90;;;;;;15626117;22;20062;-83
2022/04/16 06:51:52;;;;;;;5.38;1.80;;;6.60;99.90;;;;;;15600883;22;20027;-84
2022/04/16 06:57:54;;;;;;;4.55;2.15;;;6.60;99.90;;;;;;15626644;22;20381;-84
2022/04/16 07:03:56;;;;;;;3.75;2.05;;;6.60;99.90;;;;;;15623511;22;20522;-85
2022/04/16 07:09:58;;;;;;;7.00;2.95;;;6.60;99.90;;;;;;15632279;22;20019;-86
2022/04/16 07:15:59;;;;;;;4.35;2.67;;;6.70;99.90;;;;;;15603240;22;20134;-84
2022/04/16 07:22:02;;;;;;;6.35;2.45;;;6.90;99.90;;;;;;15602567;22;20026;-84
2022/04/16 07:28:04;;;;;;;5.13;2.85;;;7.10;99.90;;;;;;15624996;22;20015;-85
2022/04/16 07:34:06;;;;;;;3.08;2.00;;;7.10;99.90;;;;;;15599482;22;20081;-86
2022/04/16 07:40:09;;;;;;;5.38;2.70;;;7.10;99.90;;;;;;15598700;22;20031;-83
2022/04/16 07:46:10;;;;;;;4.10;2.05;;;7.40;99.90;;;;;;15625153;22;20089;-84
2022/04/16 07:52:13;;;;;;;5.30;2.30;;;7.50;99.90;;;;;;15598425;22;20044;-84
2022/04/16 07:58:14;;;;;;;6.35;2.70;;;7.80;99.90;;;;;;15600924;22;20058;-85
2022/04/16 08:04:16;;;;;;;4.28;2.45;;;8.00;99.90;;;;;;15594396;22;20487;-85
2022/04/16 08:10:18;;;;;;;5.10;2.40;;;8.20;99.90;;;;;;15626655;22;20085;-84
2022/04/16 08:16:20;;;;;;;3.80;1.80;;;8.40;99.90;;;;;;15622609;22;20034;-84
2022/04/16 08:22:22;;;;;;;3.40;1.60;;;8.60;99.90;;;;;;15620575;22;20118;-85
2022/04/16 08:28:24;;;;;;;2.38;1.30;;;8.70;99.90;;;;;;15598560;22;20106;-84
2022/04/16 08:34:26;;;;;;;2.20;1.08;;;8.80;99.90;;;;;;15624904;22;20100;-85
2022/04/16 08:40:28;;;;;;;2.45;1.20;;;8.90;99.90;;;;;;15627218;22;20329;-85
2022/04/16 08:46:32;;;;;;;2.35;1.10;;;8.80;99.90;;;;;;15625711;22;20115;-84
2022/04/16 08:52:36;;;;;;;2.78;1.20;;;9.20;99.90;;;;;;15601234;22;20030;-85
2022/04/16 08:58:39;;;;;;;2.17;1.00;;;9.70;99.90;;;;;;15606648;22;20027;-86
2022/04/16 09:04:42;;;;;;;3.08;0.90;;;9.60;99.90;;;;;;15604296;22;20494;-85
2022/04/16 09:10:44;;;;;;;2.13;0.90;;;9.90;99.90;;;;;;15634702;22;20078;-85
2022/04/16 09:16:46;;;;;;;2.97;0.90;;;9.80;99.90;;;;;;15630308;22;20023;-86
2022/04/16 09:22:49;;;;;;;1.75;0.73;;;10.10;99.90;;;;;;15599969;22;20102;-86
2022/04/16 09:28:51;;;;;;;3.90;1.17;;;10.00;99.90;;;;;;15634570;22;20439;-85
2022/04/16 09:34:53;;;;;;;1.63;0.70;;;10.40;99.90;;;;;;15602486;22;20062;-85
2022/04/16 09:41:02;;;;;;;2.95;1.00;;;10.20;99.90;;;;;;15603002;22;20460;-85
2022/04/16 09:47:06;;;;;;;1.85;0.80;;;10.40;99.90;;;;;;15628850;22;20102;-85
2022/04/16 09:53:09;;;;;;;1.60;0.70;;;10.90;99.90;;;;;;15625248;22;20169;-85
2022/04/16 09:59:12;;;;;;;1.75;0.90;;;11.20;99.90;;;;;;15628955;22;20027;-85
2022/04/16 10:05:14;;;;;;;1.48;0.85;;;11.50;99.90;;;;;;15630319;22;20065;-86
2022/04/16 10:11:21;;;;;;;2.88;0.95;;;11.60;99.90;;;;;;15633869;22;20031;-85
2022/04/16 10:17:24;;;;;;;2.28;1.10;;;11.60;99.90;;;;;;15631261;22;20034;-87
2022/04/16 10:23:38;;;;;;;1.88;1.00;;;11.60;99.90;;;;;;15597021;22;20030;-86
2022/04/16 10:29:40;;;;;;;1.48;0.77;;;11.80;99.90;;;;;;15635007;22;20054;-86
2022/04/16 10:35:59;;;;;;;1.48;0.80;;;11.70;99.90;;;;;;15605078;22;20038;-85
2022/04/16 10:42:03;;;;;;;2.03;0.80;;;11.90;99.90;;;;;;15654904;22;20440;-85
2022/04/16 10:48:08;;;;;;;2.00;0.90;;;12.10;99.90;;;;;;15612277;22;20023;-86
2022/04/16 10:54:15;;;;;;;1.25;0.75;;;12.40;99.90;;;;;;15601409;22;20023;-85
2022/04/16 11:00:18;;;;;;;3.10;0.90;;;12.40;99.90;;;;;;15598355;22;20023;-86
2022/04/16 11:06:41;;;;;;;3.00;0.93;;;12.40;99.90;;;;;;15629778;22;20019;-86
2022/04/16 11:12:45;;;;;;;1.45;0.80;;;12.30;99.90;;;;;;15596750;22;20038;-86
2022/04/16 11:18:50;;;;;;;;;;;12.70;99.90;;;;;;15631015;22;20034;-85
2022/04/16 11:24:52;;;;;;;1.42;0.77;;;12.50;99.90;;;;;;15605726;22;19918;-86
2022/04/16 11:37:17;;;;;;;2.45;1.00;;;12.70;99.90;;;;;;15621403;22;20119;-87
2022/04/16 11:43:22;;;;;;;2.08;0.95;;;12.90;99.90;;;;;;15599633;22;20080;-86
2022/04/16 11:49:24;;;;;;;1.33;0.68;;;12.40;99.90;;;;;;15598358;22;20101;-86
2022/04/16 11:55:26;;;;;;;2.60;0.90;;;12.90;99.90;;;;;;15596997;22;20096;-86
2022/04/16 12:01:28;;;;;;;1.58;0.85;;;12.80;99.90;;;;;;15624059;22;20468;-86
2022/04/16 12:07:31;;;;;;;1.50;0.70;;;13.20;99.90;;;;;;15600077;22;20042;-86
2022/04/16 12:13:36;;;;;;;2.40;1.15;;;13.10;99.90;;;;;;15624989;22;20054;-85
2022/04/16 12:19:41;;;;;;;10.32;1.15;;;13.20;99.90;;;;;;15624449;22;20034;-86
2022/04/16 12:25:43;;;;;;;2.03;0.82;;;13.60;99.90;;;;;;15601028;22;20134;-86
2022/04/16 12:31:56;;;;;;;2.22;0.90;;;13.80;99.90;;;;;;15633827;22;20350;-87
2022/04/16 12:37:59;;;;;;;4.60;0.80;;;13.50;99.90;;;;;;15632402;22;20023;-85
2022/04/16 12:44:01;;;;;;;2.30;0.90;;;13.70;99.90;;;;;;15629275;22;20145;-86
2022/04/16 12:50:04;;;;;;;3.10;0.95;;;13.90;99.90;;;;;;15631384;22;20034;-86
2022/04/16 12:56:05;;;;;;;4.07;1.08;;;14.30;99.90;;;;;;15629631;22;20474;-86
2022/04/16 13:02:07;;;;;;;3.75;1.02;;;14.10;99.90;;;;;;15601635;22;20034;-86
2022/04/16 13:08:11;;;;;;;3.35;1.02;;;13.90;99.90;;;;;;15632491;22;20205;-86
2022/04/16 13:14:13;;;;;;;2.42;1.00;;;13.80;99.90;;;;;;15604194;22;20027;-86
2022/04/16 13:20:15;;;;;;;4.03;1.10;;;13.90;99.90;;;;;;15633416;22;20378;-86
2022/04/16 13:26:17;;;;;;;1.92;0.90;;;13.90;99.90;;;;;;15606931;22;20092;-86
2022/04/16 13:32:20;;;;;;;2.88;1.05;;;13.90;99.90;;;;;;15604295;22;20109;-85
2022/04/16 13:38:28;;;;;;;1.25;0.60;;;14.00;99.90;;;;;;15603901;22;20750;-86
2022/04/16 13:44:30;;;;;;;2.63;0.90;;;13.80;99.90;;;;;;15631624;22;20047;-85
2022/04/16 13:50:32;;;;;;;4.10;0.90;;;14.10;99.90;;;;;;15630207;22;20023;-86
2022/04/16 13:56:34;;;;;;;2.33;0.90;;;14.20;99.90;;;;;;15603151;22;20059;-86
2022/04/16 14:02:36;;;;;;;2.47;0.73;;;14.40;99.90;;;;;;15594920;22;20054;-86
2022/04/16 14:08:38;;;;;;;1.85;0.82;;;14.10;99.90;;;;;;15599927;22;20094;-86
2022/04/16 14:14:40;;;;;;;2.65;0.85;;;14.40;99.90;;;;;;15605954;22;20038;-85
2022/04/16 14:20:42;;;;;;;2.55;0.90;;;14.00;99.90;;;;;;15608957;22;20086;-85
2022/04/16 14:26:44;;;;;;;2.40;0.85;;;14.50;99.90;;;;;;15538086;22;20090;-84
2022/04/16 14:32:48;;;;;;;2.78;0.90;;;14.30;99.90;;;;;;15484853;22;20044;-85
2022/04/16 14:38:50;;;;;;;2.38;0.90;;;14.50;99.90;;;;;;15477502;23;20059;-84
2022/04/16 14:44:52;;;;;;;3.10;1.00;;;14.60;99.90;;;;;;15476126;23;20055;-85
2022/04/16 14:50:54;;;;;;;2.30;1.00;;;14.30;99.90;;;;;;15474884;22;20019;-86
2022/04/16 14:56:57;;;;;;;2.08;0.90;;;14.10;99.90;;;;;;15474887;22;20056;-85
2022/04/16 15:02:58;;;;;;;2.03;1.00;;;14.30;99.90;;;;;;15478151;22;20180;-85
2022/04/16 15:09:00;;;;;;;2.10;1.13;;;14.10;99.90;;;;;;15462734;22;20119;-86
2022/04/16 15:15:02;;;;;;;2.28;0.95;;;14.60;99.90;;;;;;15476253;23;20090;-85
2022/04/16 15:21:05;;;;;;;2.15;1.00;;;14.80;99.90;;;;;;15473150;22;20107;-85
2022/04/16 15:27:06;;;;;;;1.83;1.00;;;14.90;99.90;;;;;;15588067;22;20558;-85
2022/04/16 15:33:08;;;;;;;4.20;1.05;;;14.80;99.90;;;;;;15619155;22;20034;-87
2022/04/16 15:39:11;;;;;;;2.35;1.30;;;14.60;99.90;;;;;;15582983;22;20132;-85
2022/04/16 15:45:14;;;;;;;2.85;1.20;;;14.20;99.90;;;;;;15600301;22;20023;-85
2022/04/16 15:51:15;;;;;;;3.03;0.93;;;14.20;99.90;;;;;;15601238;22;20030;-86
2022/04/16 15:57:17;;;;;;;3.30;1.20;;;14.50;99.90;;;;;;15603539;22;20034;-86
2022/04/16 16:03:19;;;;;;;3.58;1.30;;;14.30;99.90;;;;;;15600901;22;20027;-85
2022/04/16 16:09:21;;;;;;;2.00;1.00;;;14.30;99.90;;;;;;15604671;22;20047;-85
2022/04/16 16:15:24;;;;;;;3.00;1.20;;;14.00;99.90;;;;;;15594970;22;20027;-86
2022/04/16 16:21:25;;;;;;;2.60;1.10;;;14.10;99.90;;;;;;15604835;22;20078;-85
2022/04/16 16:27:29;;;;;;;3.50;1.30;;;13.60;99.90;;;;;;15606456;22;20034;-86
2022/04/16 16:33:31;;;;;;;3.40;1.10;;;13.50;99.90;;;;;;15623651;22;20348;-85
2022/04/16 16:39:33;;;;;;;3.85;1.30;;;13.80;99.90;;;;;;15604035;22;20092;-85
2022/04/16 16:45:35;;;;;;;2.72;1.20;;;13.80;99.90;;;;;;15630995;22;20101;-86
2022/04/16 16:51:37;;;;;;;2.08;1.00;;;13.90;99.90;;;;;;15627480;22;20030;-84
2022/04/16 16:57:39;;;;;;;2.72;1.50;;;13.90;99.90;;;;;;15619108;22;20108;-86
2022/04/16 17:10:01;;;;;;;5.28;1.65;;;13.80;99.90;;;;;;15622679;22;20540;-86
2022/04/16 17:22:25;;;;;;;3.47;1.27;;;13.30;99.90;;;;;;15632490;22;20027;-85
2022/04/16 17:28:28;;;;;;;5.35;1.20;;;13.20;99.90;;;;;;15633990;22;20042;-85
2022/04/16 17:34:30;;;;;;;3.28;1.52;;;12.90;99.90;;;;;;15604653;22;20891;-85
2022/04/16 17:40:32;;;;;;;2.30;1.33;;;12.80;99.90;;;;;;15629166;22;20384;-85
2022/04/16 17:46:34;;;;;;;4.47;1.58;;;12.60;99.90;;;;;;15633981;22;20027;-86
2022/04/16 17:52:36;;;;;;;4.32;1.65;;;12.30;99.90;;;;;;15636136;22;20053;-85
2022/04/16 17:58:38;;;;;;;5.72;1.50;;;12.00;99.90;;;;;;15604497;22;20051;-86
2022/04/16 18:04:40;;;;;;;2.58;1.33;;;11.70;99.90;;;;;;15632750;22;20092;-85
2022/04/16 18:10:42;;;;;;;3.75;1.63;;;11.60;99.90;;;;;;15607046;22;20023;-85
2022/04/16 18:16:44;;;;;;;16.65;8.77;;;11.30;99.90;;;;;;15606659;22;20083;-85
2022/04/16 18:22:46;;;;;;;15.23;9.85;;;11.30;99.90;;;;;;15608020;22;20019;-86
2022/04/16 18:28:48;;;;;;;12.20;6.32;;;11.10;99.90;;;;;;15605127;22;20108;-85
2022/04/16 18:34:51;;;;;;;22.00;12.27;;;10.90;99.90;;;;;;15634366;22;20034;-85
2022/04/16 18:40:56;;;;;;;6.40;3.38;;;10.90;99.90;;;;;;15606112;22;20435;-85
2022/04/16 18:46:59;;;;;;;6.47;2.92;;;10.70;99.90;;;;;;15605737;22;20023;-85
2022/04/16 18:53:03;;;;;;;17.80;10.60;;;10.60;99.90;;;;;;15611950;22;20027;-85
2022/04/16 18:59:05;;;;;;;9.27;5.40;;;10.20;99.90;;;;;;15634034;22;20268;-85
2022/04/16 19:11:27;;;;;;;6.45;3.78;;;10.00;99.90;;;;;;15631847;22;20027;-85
2022/04/16 19:17:48;;;;;;;10.30;4.78;;;10.00;99.90;;;;;;15609678;22;20060;-85
2022/04/16 19:23:49;;;;;;;8.73;4.60;;;9.90;99.90;;;;;;15603108;22;20053;-85
2022/04/16 19:29:51;;;;;;;8.15;4.05;;;9.80;99.90;;;;;;15601084;22;20141;-86
2022/04/16 19:35:53;;;;;;;14.18;7.93;;;9.70;99.90;;;;;;15601309;22;20537;-85
2022/04/16 19:41:55;;;;;;;7.20;4.28;;;9.80;99.90;;;;;;15605046;22;20632;-86
2022/04/16 19:47:57;;;;;;;9.75;4.25;;;9.70;99.90;;;;;;15631720;22;20019;-84
2022/04/16 19:53:58;;;;;;;13.65;6.13;;;9.50;99.90;;;;;;15602265;22;20228;-85
2022/04/16 20:00:01;;;;;;;13.98;6.95;;;9.50;99.90;;;;;;15629256;22;20052;-85
2022/04/16 20:06:03;;;;;;;10.65;6.10;;;9.30;99.90;;;;;;15602107;22;20149;-85
2022/04/16 20:12:06;;;;;;;11.77;6.83;;;9.20;99.90;;;;;;15603343;22;20063;-85
2022/04/16 20:18:08;;;;;;;11.90;6.10;;;9.10;99.90;;;;;;15628267;22;21091;-85
2022/04/16 20:24:10;;;;;;;23.60;13.13;;;9.10;99.90;;;;;;15602367;22;20020;-85
2022/04/16 20:30:12;;;;;;;12.15;7.93;;;8.90;99.90;;;;;;15629878;22;20501;-84
2022/04/16 20:36:14;;;;;;;9.85;5.38;;;8.90;99.90;;;;;;15626755;22;20129;-85
2022/04/16 20:48:36;;;;;;;10.50;6.80;;;8.90;99.90;;;;;;15641700;22;20098;-85
2022/04/16 20:54:38;;;;;;;21.23;9.30;;;8.80;99.90;;;;;;15608613;22;20175;-84
2022/04/16 21:00:41;;;;;;;27.88;13.63;;;8.80;99.90;;;;;;15638659;22;20034;-85
2022/04/16 21:06:43;;;;;;;11.40;5.82;;;8.70;99.90;;;;;;15633766;22;20393;-85
2022/04/16 21:12:45;;;;;;;10.85;6.20;;;8.60;99.90;;;;;;15639485;22;20063;-84
2022/04/16 21:18:47;;;;;;;9.60;6.18;;;8.70;99.90;;;;;;15610912;22;20386;-84
2022/04/16 21:24:49;;;;;;;11.50;6.03;;;8.60;99.90;;;;;;15633119;22;21066;-84
2022/04/16 21:30:51;;;;;;;11.85;6.18;;;8.60;99.90;;;;;;15630000;22;20475;-85
2022/04/16 21:36:53;;;;;;;9.25;5.28;;;8.60;99.90;;;;;;15604115;22;20019;-84
2022/04/16 21:42:59;;;;;;;6.78;3.97;;;8.70;99.90;;;;;;15605055;22;20094;-85
2022/04/16 21:49:01;;;;;;;6.55;4.10;;;8.40;99.90;;;;;;15636058;22;20053;-84
2022/04/16 21:55:03;;;;;;;6.60;3.20;;;8.00;99.90;;;;;;15602444;22;20102;-84
2022/04/16 22:01:32;;;;;;;10.77;4.20;;;7.90;99.90;;;;;;15629623;22;20050;-85
2022/04/16 22:07:34;;;;;;;6.35;3.63;;;8.00;99.90;;;;;;15606966;22;20047;-85
2022/04/16 22:13:36;;;;;;;10.02;4.38;;;8.20;99.90;;;;;;15632124;22;20117;-85
2022/04/16 22:19:38;;;;;;;10.20;4.50;;;8.10;99.90;;;;;;15609539;22;20371;-84
2022/04/16 22:25:40;;;;;;;8.23;4.85;;;8.00;99.90;;;;;;15606014;22;20023;-85
2022/04/16 22:31:42;;;;;;;8.55;5.10;;;7.80;99.90;;;;;;15633261;22;20097;-83
2022/04/16 22:44:05;;;;;;;9.60;5.20;;;7.50;99.90;;;;;;15634989;22;20073;-85
2022/04/16 22:50:07;;;;;;;9.80;5.70;;;7.50;99.90;;;;;;15604155;22;20027;-83
2022/04/16 22:56:09;;;;;;;8.40;4.90;;;7.50;99.90;;;;;;15608832;22;20452;-84
2022/04/16 23:02:11;;;;;;;9.77;5.30;;;7.30;99.90;;;;;;15606321;22;20096;-83
2022/04/16 23:08:15;;;;;;;9.93;5.05;;;7.40;99.90;;;;;;15635451;22;20030;-85
2022/04/16 23:14:17;;;;;;;;;;;7.50;99.90;;;;;;15608398;22;20100;-84
2022/04/16 23:20:19;;;;;;;8.77;5.05;;;7.60;99.90;;;;;;15605741;22;19918;-83
2022/04/16 23:26:20;;;;;;;11.70;5.38;;;7.30;99.90;;;;;;15633609;22;20112;-84
2022/04/16 23:32:22;;;;;;;9.68;5.00;;;7.30;99.90;;;;;;15631748;22;20463;-83
2022/04/16 23:38:24;;;;;;;11.75;5.35;;;7.20;99.90;;;;;;15608317;22;20376;-83
2022/04/16 23:50:47;;;;;;;9.25;5.30;;;7.30;99.90;;;;;;15652924;22;20019;-85
2022/04/16 23:56:49;;;;;;;8.68;5.07;;;7.10;99.90;;;;;;15629571;22;20023;-84
